createdAt,value
2018-07-12T00:02:18.266Z,75.96
2018-07-12T00:04:46.554Z,76.11
2018-07-12T00:07:14.370Z,75.55
2018-07-12T00:09:42.339Z,75.45
2018-07-12T00:12:10.181Z,76.18
2018-07-12T00:14:38.051Z,76.00
2018-07-12T00:17:06.529Z,76.13
2018-07-12T00:19:34.591Z,75.66
2018-07-12T00:22:02.421Z,75.41
2018-07-12T00:24:30.260Z,75.33
2018-07-12T00:26:58.404Z,75.74
2018-07-12T00:29:26.322Z,76.53
2018-07-12T00:31:54.321Z,75.68
2018-07-12T00:34:22.155Z,75.94
2018-07-12T00:36:50.196Z,75.08
2018-07-12T00:39:28.795Z,75.03
2018-07-12T00:41:56.608Z,74.69
2018-07-12T00:44:24.374Z,74.49
2018-07-12T00:49:19.645Z,75.69
2018-07-12T00:51:47.690Z,75.18
2018-07-12T00:54:15.512Z,74.79
2018-07-12T00:56:43.274Z,74.34
2018-07-12T00:59:11.074Z,74.32
2018-07-12T01:01:39.370Z,73.81
2018-07-12T01:04:07.214Z,74.27
2018-07-12T01:06:35.359Z,75.10
2018-07-12T01:09:03.170Z,75.01
2018-07-12T01:11:30.945Z,75.03
2018-07-12T01:13:58.718Z,74.82
2018-07-12T01:16:26.886Z,74.81
2018-07-12T01:18:54.672Z,74.38
2018-07-12T01:21:22.452Z,74.57
2018-07-12T01:23:50.759Z,73.73
2018-07-12T01:26:18.611Z,74.53
2018-07-12T01:28:46.447Z,73.45
2018-07-12T01:31:14.257Z,73.23
2018-07-12T01:33:42.010Z,74.04
2018-07-12T01:36:09.826Z,73.68
2018-07-12T01:38:37.653Z,74.43
2018-07-12T01:41:05.473Z,74.42
2018-07-12T01:43:33.274Z,73.52
2018-07-12T01:46:01.187Z,74.01
2018-07-12T01:48:29.007Z,74.12
2018-07-12T01:50:56.839Z,74.38
2018-07-12T01:53:25.262Z,74.47
2018-07-12T01:55:53.188Z,73.41
2018-07-12T01:58:20.950Z,73.66
2018-07-12T02:00:48.921Z,73.77
2018-07-12T02:03:17.126Z,74.40
2018-07-12T02:05:44.895Z,74.43
2018-07-12T02:08:12.967Z,73.16
2018-07-12T02:10:40.760Z,73.90
2018-07-12T02:13:08.565Z,74.21
2018-07-12T02:15:36.390Z,73.44
2018-07-12T02:18:04.194Z,73.61
2018-07-12T02:20:31.985Z,72.81
2018-07-12T02:22:59.827Z,73.25
2018-07-12T02:25:27.614Z,73.03
2018-07-12T02:27:55.374Z,73.62
2018-07-12T02:30:23.567Z,74.08
2018-07-12T02:32:51.327Z,73.76
2018-07-12T02:35:19.137Z,73.58
2018-07-12T02:37:47.018Z,73.97
2018-07-12T02:40:14.810Z,74.20
2018-07-12T02:42:42.575Z,73.97
2018-07-12T02:45:10.376Z,73.71
2018-07-12T02:47:38.150Z,74.36
2018-07-12T02:50:05.942Z,73.94
2018-07-12T02:52:34.035Z,73.63
2018-07-12T02:55:01.809Z,73.27
2018-07-12T02:57:29.600Z,73.48
2018-07-12T02:59:57.413Z,74.19
2018-07-12T03:02:25.249Z,73.94
2018-07-12T03:04:53.073Z,75.14
2018-07-12T03:07:20.881Z,74.95
2018-07-12T03:09:48.670Z,74.75
2018-07-12T03:12:17.295Z,74.63
2018-07-12T03:14:45.227Z,74.67
2018-07-12T03:17:13.020Z,74.28
2018-07-12T03:19:40.794Z,74.55
2018-07-12T03:22:08.609Z,74.67
2018-07-12T03:24:36.394Z,75.50
2018-07-12T03:27:04.146Z,75.58
2018-07-12T03:29:31.930Z,74.52
2018-07-12T03:31:59.737Z,74.93
2018-07-12T03:34:27.571Z,74.63
2018-07-12T03:36:55.573Z,74.08
2018-07-12T03:39:23.439Z,74.66
2018-07-12T03:41:51.245Z,74.70
2018-07-12T03:44:19.194Z,74.15
2018-07-12T03:46:46.998Z,74.40
2018-07-12T03:49:14.801Z,74.60
2018-07-12T03:51:42.829Z,74.59
2018-07-12T03:54:10.591Z,74.21
2018-07-12T03:56:38.369Z,73.71
2018-07-12T03:59:06.445Z,73.61
2018-07-12T04:01:34.224Z,74.64
2018-07-12T04:04:02.031Z,75.03
2018-07-12T04:06:29.861Z,74.24
2018-07-12T04:08:57.799Z,74.99
2018-07-12T04:11:25.742Z,74.95
2018-07-12T04:13:53.573Z,74.84
2018-07-12T04:16:21.363Z,75.09
2018-07-12T04:18:49.209Z,74.33
2018-07-12T04:21:18.084Z,73.87
2018-07-12T04:23:45.927Z,74.13
2018-07-12T04:26:13.958Z,73.47
2018-07-12T04:28:41.792Z,73.12
2018-07-12T04:31:09.758Z,71.61
2018-07-12T04:33:37.587Z,70.89
2018-07-12T04:36:05.402Z,71.09
2018-07-12T04:38:33.188Z,70.93
2018-07-12T04:41:01.091Z,71.57
2018-07-12T04:43:29.450Z,70.69
2018-07-12T04:45:57.467Z,70.00
2018-07-12T04:48:25.232Z,69.81
2018-07-12T04:50:53.039Z,69.29
2018-07-12T04:53:20.918Z,68.81
2018-07-12T04:55:48.809Z,69.15
2018-07-12T04:58:16.801Z,69.38
2018-07-12T05:00:44.797Z,69.12
2018-07-12T05:03:12.589Z,69.38
2018-07-12T05:05:40.506Z,68.92
2018-07-12T05:08:08.324Z,69.53
2018-07-12T05:10:36.059Z,69.05
2018-07-12T05:13:03.824Z,69.23
2018-07-12T05:15:31.615Z,70.09
2018-07-12T05:17:59.438Z,70.63
2018-07-12T05:20:27.262Z,71.04
2018-07-12T05:22:55.052Z,70.43
2018-07-12T05:25:22.825Z,71.00
2018-07-12T05:27:50.729Z,70.46
2018-07-12T05:30:18.807Z,70.37
2018-07-12T05:32:46.575Z,69.97
2018-07-12T05:35:14.382Z,69.26
2018-07-12T05:37:43.700Z,70.00
2018-07-12T05:40:12.982Z,70.18
2018-07-12T05:42:42.358Z,69.67
2018-07-12T05:45:11.445Z,70.00
2018-07-12T05:47:40.811Z,69.40
2018-07-12T05:50:10.244Z,69.58
2018-07-12T05:52:39.554Z,70.15
2018-07-12T05:55:09.020Z,68.81
2018-07-12T05:57:38.351Z,69.03
2018-07-12T06:00:07.727Z,68.11
2018-07-12T06:02:37.024Z,68.50
2018-07-12T06:05:06.451Z,67.94
2018-07-12T06:07:35.828Z,67.81
2018-07-12T06:10:05.228Z,67.88
2018-07-12T06:12:34.939Z,66.81
2018-07-12T06:15:04.310Z,67.02
2018-07-12T06:17:33.610Z,66.16
2018-07-12T06:20:03.013Z,65.70
2018-07-12T06:22:32.389Z,65.86
2018-07-12T06:25:01.718Z,65.26
2018-07-12T06:27:31.680Z,65.53
2018-07-12T06:30:01.152Z,66.64
2018-07-12T06:32:30.403Z,67.14
2018-07-12T06:34:59.831Z,66.95
2018-07-12T06:37:28.892Z,67.02
2018-07-12T06:39:58.195Z,66.26
2018-07-12T06:42:27.501Z,66.77
2018-07-12T06:44:56.558Z,67.41
2018-07-12T06:47:26.095Z,66.64
2018-07-12T06:49:55.466Z,67.24
2018-07-12T06:52:24.788Z,66.75
2018-07-12T06:54:54.242Z,67.87
2018-07-12T06:57:23.730Z,67.56
2018-07-12T06:59:53.077Z,67.91
2018-07-12T07:02:22.506Z,65.60
2018-07-12T07:04:51.908Z,66.11
2018-07-12T07:07:21.289Z,65.73
2018-07-12T07:09:50.698Z,63.72
2018-07-12T07:12:20.024Z,62.16
2018-07-12T07:14:49.306Z,61.00
2018-07-12T07:17:18.576Z,59.65
2018-07-12T07:19:48.651Z,60.54
2018-07-12T07:22:17.979Z,60.69
2018-07-12T07:24:47.281Z,60.82
2018-07-12T07:27:16.647Z,60.47
2018-07-12T07:29:46.051Z,61.46
2018-07-12T07:32:15.331Z,60.78
2018-07-12T07:34:44.690Z,60.76
2018-07-12T07:37:14.054Z,59.88
2018-07-12T07:39:43.424Z,60.96
2018-07-12T07:42:12.856Z,60.09
2018-07-12T07:44:42.230Z,59.15
2018-07-12T07:47:11.630Z,60.15
2018-07-12T07:49:41.126Z,60.21
2018-07-12T07:52:10.459Z,60.78
2018-07-12T07:54:39.977Z,60.76
2018-07-12T07:57:09.420Z,59.04
2018-07-12T07:59:38.656Z,57.87
2018-07-12T08:02:09.272Z,59.15
2018-07-12T08:04:38.726Z,58.73
2018-07-12T08:07:11.173Z,58.22
2018-07-12T08:09:42.565Z,58.03
2018-07-12T08:12:11.922Z,56.34
2018-07-12T08:14:41.588Z,55.65
2018-07-12T08:17:10.955Z,56.82
2018-07-12T08:19:40.652Z,56.53
2018-07-12T08:22:11.059Z,55.80
2018-07-12T08:24:40.498Z,54.16
2018-07-12T08:27:10.381Z,54.42
2018-07-12T08:29:39.698Z,52.87
2018-07-12T08:32:09.115Z,53.98
2018-07-12T08:34:38.731Z,53.40
2018-07-12T08:37:08.036Z,52.24
2018-07-12T08:39:37.506Z,52.75
2018-07-12T08:42:06.944Z,51.42
2018-07-12T08:44:36.216Z,50.44
2018-07-12T08:47:05.979Z,51.16
2018-07-12T08:49:35.316Z,52.49
2018-07-12T08:52:04.856Z,52.19
2018-07-12T08:54:34.503Z,51.68
2018-07-12T08:57:03.818Z,52.45
2018-07-12T08:59:33.111Z,50.59
2018-07-12T09:02:02.458Z,51.08
2018-07-12T09:04:31.792Z,50.41
2018-07-12T09:07:01.087Z,49.11
2018-07-12T09:09:30.812Z,49.95
2018-07-12T09:12:00.072Z,49.69
2018-07-12T09:14:29.431Z,47.91
2018-07-12T09:16:58.737Z,47.32
2018-07-12T09:19:27.967Z,47.90
2018-07-12T09:21:57.264Z,48.28
2018-07-12T09:24:26.590Z,47.59
2018-07-12T09:26:55.932Z,48.21
2018-07-12T09:29:25.231Z,47.38
2018-07-12T09:31:54.880Z,47.11
2018-07-12T09:34:24.208Z,45.07
2018-07-12T09:36:53.671Z,43.79
2018-07-12T09:39:22.975Z,43.81
2018-07-12T09:41:52.265Z,43.88
2018-07-12T09:44:21.588Z,43.28
2018-07-12T09:46:51.015Z,43.56
2018-07-12T09:49:20.465Z,43.10
2018-07-12T09:51:49.884Z,43.07
2018-07-12T09:54:19.562Z,43.13
2018-07-12T09:57:05.650Z,42.12
2018-07-12T09:59:34.958Z,42.63
2018-07-12T10:02:09.449Z,42.18
2018-07-12T10:04:38.777Z,42.21
2018-07-12T10:07:13.434Z,42.15
2018-07-12T10:09:48.029Z,41.45
2018-07-12T10:12:22.480Z,41.75
2018-07-12T10:14:55.923Z,40.72
2018-07-12T10:17:30.590Z,39.43
2018-07-12T10:20:00.133Z,39.66
2018-07-12T10:22:29.444Z,40.79
2018-07-12T10:24:58.744Z,38.96
2018-07-12T10:27:28.997Z,37.59
2018-07-12T10:29:58.423Z,38.63
2018-07-12T10:32:27.701Z,38.29
2018-07-12T10:34:57.037Z,39.00
2018-07-12T10:37:26.338Z,37.97
2018-07-12T10:39:55.422Z,38.97
2018-07-12T10:42:25.282Z,37.63
2018-07-12T10:44:54.691Z,37.62
2018-07-12T10:47:24.054Z,37.96
2018-07-12T10:49:53.844Z,36.08
2018-07-12T10:52:23.206Z,35.05
2018-07-12T10:54:52.525Z,35.83
2018-07-12T10:57:24.597Z,34.14
2018-07-12T10:59:54.038Z,34.94
2018-07-12T11:02:23.416Z,34.77
2018-07-12T11:04:52.794Z,35.19
2018-07-12T11:07:22.080Z,35.60
2018-07-12T11:09:51.444Z,35.55
2018-07-12T11:12:21.593Z,34.00
2018-07-12T11:14:50.934Z,34.30
2018-07-12T11:17:20.251Z,33.40
2018-07-12T11:19:49.638Z,33.61
2018-07-12T11:22:18.986Z,32.41
2018-07-12T11:24:48.305Z,32.86
2018-07-12T11:27:17.662Z,34.06
2018-07-12T11:29:57.017Z,34.03
2018-07-12T11:32:27.007Z,34.60
2018-07-12T11:34:56.362Z,34.04
2018-07-12T11:37:26.914Z,34.49
2018-07-12T11:39:56.344Z,34.18
2018-07-12T11:42:25.706Z,34.60
2018-07-12T11:44:55.983Z,34.75
2018-07-12T11:47:25.412Z,33.12
2018-07-12T11:49:54.841Z,33.16
2018-07-12T11:52:24.374Z,32.26
2018-07-12T11:54:54.228Z,31.36
2018-07-12T11:57:23.591Z,31.71
2018-07-12T11:59:52.938Z,29.74
2018-07-12T12:02:22.336Z,30.47
2018-07-12T12:04:51.738Z,29.87
2018-07-12T12:07:21.097Z,30.03
2018-07-12T12:09:51.035Z,30.07
2018-07-12T12:12:20.391Z,28.67
2018-07-12T12:14:49.794Z,29.17
2018-07-12T12:17:19.494Z,28.98
2018-07-12T12:19:48.982Z,29.83
2018-07-12T12:22:18.268Z,30.90
2018-07-12T12:24:47.353Z,30.96
2018-07-12T12:27:16.690Z,31.43
2018-07-12T12:29:46.079Z,32.47
2018-07-12T12:32:15.449Z,31.98
2018-07-12T12:34:44.790Z,33.31
2018-07-12T12:37:14.104Z,32.98
2018-07-12T12:39:43.624Z,33.87
2018-07-12T12:42:12.907Z,34.11
2018-07-12T12:44:42.236Z,33.73
2018-07-12T12:47:11.596Z,33.04
2018-07-12T12:49:41.456Z,33.21
2018-07-12T12:52:10.827Z,33.84
2018-07-12T12:54:40.216Z,34.89
2018-07-12T12:57:09.555Z,34.69
2018-07-12T12:59:38.969Z,34.60
2018-07-12T13:02:08.248Z,34.66
2018-07-12T13:04:37.617Z,35.50
2018-07-12T13:07:07.192Z,35.72
2018-07-12T13:09:36.595Z,37.31
2018-07-12T13:12:06.034Z,38.95
2018-07-12T13:14:35.368Z,39.22
2018-07-12T13:17:04.711Z,38.67
2018-07-12T13:19:34.056Z,39.20
2018-07-12T13:22:03.439Z,39.33
2018-07-12T13:24:33.364Z,40.52
2018-07-12T13:27:02.744Z,39.48
2018-07-12T13:32:06.000Z,37.95
2018-07-12T13:34:35.473Z,36.39
2018-07-12T13:37:05.215Z,36.60
2018-07-12T13:39:35.115Z,36.28
2018-07-12T13:42:04.491Z,35.84
2018-07-12T13:44:33.874Z,35.23
2018-07-12T13:47:03.172Z,34.88
2018-07-12T13:49:32.501Z,35.02
2018-07-12T13:52:01.885Z,35.69
2018-07-12T13:54:31.235Z,35.18
2018-07-12T13:57:00.631Z,35.29
2018-07-12T13:59:29.942Z,34.85
2018-07-12T14:01:59.880Z,35.19
2018-07-12T14:04:29.411Z,34.03
2018-07-12T14:06:58.759Z,34.48
2018-07-12T14:09:28.168Z,34.37
2018-07-12T14:11:57.678Z,34.54
2018-07-12T14:14:27.010Z,33.99
2018-07-12T14:16:56.430Z,33.37
2018-07-12T14:19:25.857Z,33.75
2018-07-12T14:21:55.216Z,32.12
2018-07-12T14:24:25.373Z,32.37
2018-07-12T14:26:54.840Z,32.17
2018-07-12T14:29:24.263Z,32.59
2018-07-12T14:31:53.643Z,33.29
2018-07-12T14:34:22.999Z,34.07
2018-07-12T14:36:52.546Z,33.79
2018-07-12T14:39:22.070Z,33.69
2018-07-12T14:41:51.483Z,33.89
2018-07-12T14:44:20.823Z,35.97
2018-07-12T14:46:51.370Z,35.40
2018-07-12T14:49:20.639Z,36.49
2018-07-12T14:51:49.963Z,35.60
2018-07-12T14:54:19.319Z,35.85
2018-07-12T14:56:48.673Z,35.88
2018-07-12T14:59:18.057Z,35.45
2018-07-12T15:01:47.490Z,35.48
2018-07-12T15:04:16.793Z,35.63
2018-07-12T15:06:46.391Z,36.55
2018-07-12T15:09:16.181Z,36.11
2018-07-12T15:11:45.362Z,36.48
2018-07-12T15:14:14.646Z,36.00
2018-07-12T15:16:44.130Z,36.50
2018-07-12T15:19:13.644Z,36.24
2018-07-12T15:21:42.920Z,37.26
2018-07-12T15:24:12.351Z,36.70
2018-07-12T15:26:41.862Z,36.95
2018-07-12T15:29:11.422Z,37.01
2018-07-12T15:31:41.378Z,38.31
2018-07-12T15:34:10.706Z,38.24
2018-07-12T15:36:40.260Z,39.97
2018-07-12T15:39:10.165Z,39.36
2018-07-12T15:41:40.182Z,39.49
2018-07-12T15:44:10.494Z,39.84
2018-07-12T15:46:40.025Z,39.97
2018-07-12T15:49:09.381Z,40.73
2018-07-12T15:51:38.707Z,40.60
2018-07-12T15:54:08.427Z,40.39
2018-07-12T15:56:37.735Z,39.54
2018-07-12T15:59:07.015Z,39.05
2018-07-12T16:01:36.459Z,38.39
2018-07-12T16:04:05.969Z,39.35
2018-07-12T16:06:35.291Z,37.46
2018-07-12T16:09:06.084Z,38.39
2018-07-12T16:11:35.561Z,37.44
2018-07-12T16:14:05.045Z,37.62
2018-07-12T16:16:34.628Z,37.37
2018-07-12T16:19:04.024Z,38.03
2018-07-12T16:21:33.362Z,36.91
2018-07-12T16:24:02.705Z,37.43
2018-07-12T16:26:32.036Z,37.79
2018-07-12T16:29:01.459Z,37.90
2018-07-12T16:31:30.907Z,37.88
2018-07-12T16:34:00.138Z,37.56
2018-07-12T16:36:29.498Z,38.42
2018-07-12T16:38:59.064Z,39.05
2018-07-12T16:41:28.445Z,39.61
2018-07-12T16:43:57.773Z,39.51
2018-07-12T16:46:27.151Z,38.48
2018-07-12T16:48:56.456Z,39.10
2018-07-12T16:51:25.890Z,38.59
2018-07-12T16:53:55.242Z,38.90
2018-07-12T16:56:24.546Z,39.79
2018-07-12T16:58:53.894Z,39.59
2018-07-12T17:01:23.632Z,40.08
2018-07-12T17:03:53.052Z,40.00
2018-07-12T17:06:22.862Z,39.82
2018-07-12T17:08:52.380Z,38.46
2018-07-12T17:11:21.770Z,39.88
2018-07-12T17:13:51.168Z,39.02
2018-07-12T17:16:20.571Z,39.57
2018-07-12T17:18:49.920Z,38.73
2018-07-12T17:21:19.324Z,39.84
2018-07-12T17:23:49.203Z,39.54
2018-07-12T17:26:18.579Z,40.30
2018-07-12T17:28:47.989Z,39.99
2018-07-12T17:31:17.359Z,40.13
2018-07-12T17:33:46.768Z,40.10
2018-07-12T17:36:16.146Z,39.26
2018-07-12T17:38:45.617Z,40.25
2018-07-12T17:41:14.969Z,40.02
2018-07-12T17:43:44.318Z,40.35
2018-07-12T17:46:13.802Z,40.28
2018-07-12T17:48:43.189Z,40.74
2018-07-12T17:51:12.608Z,40.47
2018-07-12T17:53:42.219Z,41.62
2018-07-12T17:56:11.594Z,41.76
2018-07-12T17:58:41.099Z,41.36
2018-07-12T18:01:10.585Z,41.41
2018-07-12T18:03:40.026Z,41.26
2018-07-12T18:06:09.338Z,42.50
2018-07-12T18:08:38.960Z,42.34
2018-07-12T18:11:08.381Z,42.33
2018-07-12T18:13:37.799Z,42.41
2018-07-12T18:16:07.326Z,41.62
2018-07-12T18:18:36.703Z,41.91
2018-07-12T18:21:06.492Z,43.29
2018-07-12T18:23:35.856Z,43.63
2018-07-12T18:26:05.581Z,43.48
2018-07-12T18:28:35.212Z,44.84
2018-07-12T18:31:04.876Z,44.96
2018-07-12T18:33:34.689Z,45.71
2018-07-12T18:36:04.288Z,44.84
2018-07-12T18:38:33.922Z,46.46
2018-07-12T18:41:03.440Z,45.34
2018-07-12T18:43:32.858Z,46.26
2018-07-12T18:46:02.178Z,46.22
2018-07-12T18:48:31.519Z,45.68
2018-07-12T18:51:00.839Z,46.00
2018-07-12T18:53:30.574Z,46.47
2018-07-12T18:55:59.985Z,45.12
2018-07-12T18:58:29.379Z,45.73
2018-07-12T19:00:58.768Z,46.09
2018-07-12T19:03:28.162Z,46.14
2018-07-12T19:05:57.620Z,45.95
2018-07-12T19:08:27.059Z,46.83
2018-07-12T19:10:56.627Z,46.15
2018-07-12T19:13:25.942Z,47.15
2018-07-12T19:15:55.950Z,46.92
2018-07-12T19:18:25.415Z,46.78
2018-07-12T19:20:54.762Z,47.47
2018-07-12T19:23:24.387Z,48.14
2018-07-12T19:25:53.838Z,47.49
2018-07-12T19:28:23.294Z,47.65
2018-07-12T19:30:52.711Z,48.26
2018-07-12T19:33:22.087Z,48.93
2018-07-12T19:35:51.516Z,48.75
2018-07-12T19:38:21.295Z,48.99
2018-07-12T19:40:50.683Z,48.86
2018-07-12T19:43:20.130Z,49.44
2018-07-12T19:45:49.716Z,49.57
2018-07-12T19:48:19.384Z,49.79
2018-07-12T19:50:48.820Z,50.24
2018-07-12T19:53:18.426Z,50.68
2018-07-12T19:55:50.354Z,51.64
2018-07-12T19:58:19.895Z,52.60
2018-07-12T20:00:49.299Z,51.63
2018-07-12T20:03:18.655Z,52.46
2018-07-12T20:05:48.253Z,51.83
2018-07-12T20:08:17.693Z,51.75
2018-07-12T20:10:47.269Z,51.91
2018-07-12T20:13:16.773Z,52.32
2018-07-12T20:15:46.202Z,52.41
2018-07-12T20:18:15.905Z,53.41
2018-07-12T20:20:45.522Z,53.92
2018-07-12T20:23:15.105Z,54.62
2018-07-12T20:25:44.483Z,54.71
2018-07-12T20:28:14.165Z,54.93
2018-07-12T20:30:43.628Z,55.13
2018-07-12T20:33:13.126Z,55.30
2018-07-12T20:35:42.633Z,55.95
2018-07-12T20:38:11.950Z,56.39
2018-07-12T20:40:41.335Z,56.46
2018-07-12T20:43:17.866Z,56.95
2018-07-12T20:45:47.687Z,57.51
2018-07-12T20:48:17.575Z,57.74
2018-07-12T20:50:47.000Z,59.12
2018-07-12T20:53:16.678Z,59.56
2018-07-12T20:55:46.085Z,60.34
2018-07-12T20:58:15.500Z,60.90
2018-07-12T21:00:44.896Z,61.74
2018-07-12T21:03:14.333Z,60.63
2018-07-12T21:05:43.991Z,60.89
2018-07-12T21:08:13.458Z,61.38
2018-07-12T21:10:42.920Z,61.75
2018-07-12T21:13:12.319Z,61.74
2018-07-12T21:15:41.694Z,62.11
2018-07-12T21:18:10.824Z,62.65
2018-07-12T21:20:40.471Z,62.23
2018-07-12T21:23:09.911Z,62.03
2018-07-12T21:25:39.386Z,63.47
2018-07-12T21:28:09.051Z,62.74
2018-07-12T21:30:38.431Z,63.95
2018-07-12T21:33:07.793Z,64.25
2018-07-12T21:35:37.289Z,64.81
2018-07-12T21:38:06.618Z,64.87
2018-07-12T21:40:35.973Z,64.96
2018-07-12T21:43:05.439Z,65.72
2018-07-12T21:45:34.844Z,66.97
2018-07-12T21:48:04.233Z,66.23
2018-07-12T21:50:34.008Z,66.65
2018-07-12T21:53:03.348Z,66.67
2018-07-12T21:55:32.641Z,66.65
2018-07-12T21:58:02.044Z,67.01
2018-07-12T22:00:32.790Z,66.79
2018-07-12T22:03:02.460Z,67.49
2018-07-12T22:05:31.957Z,66.61
2018-07-12T22:08:11.801Z,67.68
2018-07-12T22:10:42.126Z,67.05
2018-07-12T22:13:12.130Z,68.15
2018-07-12T22:15:41.611Z,68.26
2018-07-12T22:18:11.413Z,68.36
2018-07-12T22:20:40.870Z,68.29
2018-07-12T22:23:10.421Z,67.88
2018-07-12T22:25:40.235Z,68.25
2018-07-12T22:28:09.702Z,67.81
2018-07-12T22:30:39.137Z,68.35
2018-07-12T22:33:08.484Z,68.69
2018-07-12T22:35:37.583Z,68.64
2018-07-12T22:38:06.944Z,68.80
2018-07-12T22:40:36.322Z,69.20
2018-07-12T22:43:05.666Z,69.29
2018-07-12T22:45:35.129Z,69.05
2018-07-12T22:48:04.553Z,68.97
2018-07-12T22:50:34.010Z,69.27
2018-07-12T22:53:03.473Z,69.99
2018-07-12T22:55:32.955Z,71.18
2018-07-12T22:58:02.306Z,70.51
2018-07-12T23:00:31.644Z,70.91
2018-07-12T23:03:01.068Z,70.39
2018-07-12T23:05:30.448Z,70.51
2018-07-12T23:08:00.086Z,70.88
2018-07-12T23:10:29.532Z,69.64
2018-07-12T23:12:58.795Z,70.90
2018-07-12T23:15:28.197Z,70.20
2018-07-12T23:17:58.280Z,69.21
2018-07-12T23:20:27.591Z,68.74
2018-07-12T23:22:57.135Z,69.13
2018-07-12T23:25:26.664Z,69.47
2018-07-12T23:27:56.040Z,70.57
2018-07-12T23:30:25.538Z,69.86
2018-07-12T23:32:55.163Z,69.35
2018-07-12T23:35:24.677Z,69.97
2018-07-12T23:37:54.064Z,70.28
2018-07-12T23:40:23.738Z,70.11
2018-07-12T23:42:53.356Z,70.05
2018-07-12T23:45:22.942Z,69.82
2018-07-12T23:47:52.365Z,70.18
2018-07-12T23:50:21.672Z,69.73
2018-07-12T23:52:51.102Z,70.25
2018-07-12T23:55:20.477Z,69.78
2018-07-12T23:57:49.803Z,70.18
